IGO392M VOBL-VIDP
Flight info
| Callsign | IGO392M |
|---|---|
| Flight time | 2h 14m |
| Altitude | 36000 |
| Route | LATID7B LATID Q22 HIA W20 BAVOX BAVOX6F |
| Aircraft | A21N/M-SDE2E3FGHIRWXY/LB1 |
Departure
| Time | 2026-04-28 09:30 |
|---|---|
| Airport | Kempegowda International Airport Bengaluru (VOBL) |
Arrival
| Time | 2026-04-28 11:45 |
|---|---|
| Airport | Indira Gandhi International Airport (VIDP) |
| Time | Latitude | Longitude | Altitude | Speed | Heading |
|---|---|---|---|---|---|
| 2026-04-28 09:17 | 13.20172 | 77.70918 | 2996 ft | 0 kts | 180° |
| 2026-04-28 09:22 | 13.20188 | 77.70916 | 2969 ft | 3 kts | 170° |
| 2026-04-28 09:22 | 13.20195 | 77.70914 | 2968 ft | 0 kts | 186° |
| 2026-04-28 09:23 | 13.20204 | 77.70916 | 2968 ft | 2 kts | 187° |
| 2026-04-28 09:23 | 13.20219 | 77.70918 | 2968 ft | 2 kts | 204° |
| 2026-04-28 09:23 | 13.20232 | 77.70925 | 2968 ft | 2 kts | 230° |
| 2026-04-28 09:23 | 13.20241 | 77.70937 | 2968 ft | 2 kts | 264° |
| 2026-04-28 09:24 | 13.20241 | 77.70952 | 2968 ft | 2 kts | 275° |
| 2026-04-28 09:24 | 13.20240 | 77.70965 | 2968 ft | 0 kts | 272° |
| 2026-04-28 09:25 | 13.20240 | 77.70964 | 2968 ft | 1 kts | 272° |
| 2026-04-28 09:25 | 13.20241 | 77.70953 | 2969 ft | 3 kts | 272° |
| 2026-04-28 09:25 | 13.20242 | 77.70934 | 2968 ft | 5 kts | 272° |
| 2026-04-28 09:25 | 13.20242 | 77.70871 | 2968 ft | 9 kts | 270° |
| 2026-04-28 09:26 | 13.20243 | 77.70815 | 2968 ft | 14 kts | 270° |
| 2026-04-28 09:26 | 13.20244 | 77.70651 | 2968 ft | 19 kts | 271° |
| 2026-04-28 09:26 | 13.20245 | 77.70558 | 2969 ft | 20 kts | 270° |
| 2026-04-28 09:26 | 13.20278 | 77.70397 | 2969 ft | 13 kts | 327° |
| 2026-04-28 09:27 | 13.20482 | 77.70394 | 2970 ft | 18 kts | 8° |
| 2026-04-28 09:27 | 13.20530 | 77.70447 | 2969 ft | 16 kts | 78° |
| 2026-04-28 09:27 | 13.20529 | 77.70609 | 2969 ft | 19 kts | 90° |
| 2026-04-28 09:28 | 13.20528 | 77.70705 | 2968 ft | 21 kts | 90° |
| 2026-04-28 09:28 | 13.20526 | 77.70866 | 2965 ft | 25 kts | 91° |
| 2026-04-28 09:28 | 13.20522 | 77.71054 | 2965 ft | 27 kts | 91° |
| 2026-04-28 09:28 | 13.20538 | 77.71166 | 2967 ft | 10 kts | 55° |
| 2026-04-28 09:29 | 13.20590 | 77.71181 | 2968 ft | 8 kts | 0° |
| 2026-04-28 09:29 | 13.20646 | 77.71182 | 2969 ft | 9 kts | 0° |
| 2026-04-28 09:29 | 13.20696 | 77.71151 | 2969 ft | 9 kts | 285° |
| 2026-04-28 09:29 | 13.20694 | 77.71102 | 2968 ft | 7 kts | 272° |
| 2026-04-28 09:30 | 13.20696 | 77.70827 | 2968 ft | 81 kts | 270° |
| 2026-04-28 09:30 | 13.20702 | 77.69980 | 2969 ft | 153 kts | 270° |
| 2026-04-28 09:30 | 13.20714 | 77.68713 | 3235 ft | 187 kts | 271° |
| 2026-04-28 09:30 | 13.20771 | 77.67397 | 4152 ft | 185 kts | 278° |
| 2026-04-28 09:31 | 13.21077 | 77.66088 | 4965 ft | 194 kts | 295° |
| 2026-04-28 09:31 | 13.21875 | 77.64907 | 5647 ft | 211 kts | 309° |
| 2026-04-28 09:31 | 13.22818 | 77.63652 | 6255 ft | 233 kts | 309° |
| 2026-04-28 09:31 | 13.23844 | 77.62282 | 6753 ft | 256 kts | 309° |
| 2026-04-28 09:32 | 13.24977 | 77.60778 | 7104 ft | 277 kts | 309° |
| 2026-04-28 09:32 | 13.26180 | 77.59186 | 7558 ft | 291 kts | 309° |
| 2026-04-28 09:32 | 13.27449 | 77.57505 | 8275 ft | 296 kts | 309° |
| 2026-04-28 09:32 | 13.28721 | 77.55828 | 9039 ft | 300 kts | 309° |
| 2026-04-28 09:33 | 13.30068 | 77.54181 | 9817 ft | 304 kts | 320° |
| 2026-04-28 09:33 | 13.31862 | 77.53068 | 10315 ft | 313 kts | 343° |
| 2026-04-28 09:33 | 13.34097 | 77.52744 | 10518 ft | 332 kts | 6° |
| 2026-04-28 09:33 | 13.36401 | 77.53253 | 10790 ft | 346 kts | 21° |
| 2026-04-28 09:34 | 13.38657 | 77.54077 | 11421 ft | 350 kts | 22° |
| 2026-04-28 09:34 | 13.40947 | 77.54944 | 12114 ft | 352 kts | 22° |
| 2026-04-28 09:34 | 13.43256 | 77.55819 | 12799 ft | 355 kts | 22° |
| 2026-04-28 09:34 | 13.45591 | 77.56695 | 13481 ft | 358 kts | 22° |
| 2026-04-28 09:35 | 13.47948 | 77.57575 | 14079 ft | 362 kts | 21° |
| 2026-04-28 09:35 | 13.50276 | 77.58441 | 14609 ft | 366 kts | 21° |
| 2026-04-28 09:35 | 13.52687 | 77.59338 | 15156 ft | 370 kts | 21° |
| 2026-04-28 09:35 | 13.55126 | 77.60246 | 15693 ft | 374 kts | 21° |
| 2026-04-28 09:36 | 13.57587 | 77.61162 | 16212 ft | 378 kts | 21° |
| 2026-04-28 09:36 | 13.60079 | 77.62090 | 16703 ft | 383 kts | 21° |
| 2026-04-28 09:36 | 13.62596 | 77.63029 | 17189 ft | 387 kts | 21° |
| 2026-04-28 09:36 | 13.65147 | 77.63982 | 17656 ft | 392 kts | 20° |
| 2026-04-28 09:37 | 13.67724 | 77.64945 | 18115 ft | 396 kts | 20° |
| 2026-04-28 09:37 | 13.70327 | 77.65917 | 18548 ft | 399 kts | 20° |
| 2026-04-28 09:37 | 13.72946 | 77.66895 | 19000 ft | 401 kts | 20° |
| 2026-04-28 09:37 | 13.75578 | 77.67877 | 19434 ft | 404 kts | 20° |
| 2026-04-28 09:38 | 13.78226 | 77.68867 | 19849 ft | 407 kts | 20° |
| 2026-04-28 09:38 | 13.80897 | 77.69865 | 20262 ft | 410 kts | 20° |
| 2026-04-28 09:38 | 13.83593 | 77.70872 | 20673 ft | 412 kts | 20° |
| 2026-04-28 09:38 | 13.86302 | 77.71885 | 21094 ft | 415 kts | 20° |
| 2026-04-28 09:39 | 13.89019 | 77.72901 | 21493 ft | 417 kts | 19° |
| 2026-04-28 09:39 | 13.91759 | 77.73927 | 21900 ft | 420 kts | 19° |
| 2026-04-28 09:39 | 13.94523 | 77.74961 | 22301 ft | 422 kts | 19° |
| 2026-04-28 09:39 | 13.97294 | 77.75999 | 22700 ft | 425 kts | 19° |
| 2026-04-28 09:40 | 14.00079 | 77.77041 | 23086 ft | 427 kts | 19° |
| 2026-04-28 09:40 | 14.02885 | 77.78093 | 23464 ft | 430 kts | 19° |
| 2026-04-28 09:40 | 14.05698 | 77.79147 | 23802 ft | 431 kts | 19° |
| 2026-04-28 09:40 | 14.08524 | 77.80207 | 24147 ft | 433 kts | 19° |
| 2026-04-28 09:41 | 14.11359 | 77.81269 | 24475 ft | 434 kts | 18° |
| 2026-04-28 09:41 | 14.14206 | 77.82337 | 24799 ft | 436 kts | 18° |
| 2026-04-28 09:41 | 14.17069 | 77.83411 | 25117 ft | 438 kts | 18° |
| 2026-04-28 09:41 | 14.19902 | 77.84474 | 25437 ft | 440 kts | 18° |
| 2026-04-28 09:42 | 14.22820 | 77.85569 | 25749 ft | 442 kts | 18° |
| 2026-04-28 09:42 | 14.25710 | 77.86653 | 26050 ft | 444 kts | 18° |
| 2026-04-28 09:42 | 14.28620 | 77.87746 | 26341 ft | 445 kts | 17° |
| 2026-04-28 09:42 | 14.31506 | 77.88831 | 26615 ft | 448 kts | 17° |
| 2026-04-28 09:43 | 14.34438 | 77.89932 | 26909 ft | 449 kts | 17° |
| 2026-04-28 09:43 | 14.37377 | 77.91037 | 27171 ft | 452 kts | 17° |
| 2026-04-28 09:43 | 14.40336 | 77.92149 | 27428 ft | 454 kts | 17° |
| 2026-04-28 09:43 | 14.43313 | 77.93268 | 27695 ft | 455 kts | 17° |
| 2026-04-28 09:44 | 14.46326 | 77.94281 | 27952 ft | 456 kts | 13° |
| 2026-04-28 09:44 | 14.49404 | 77.95101 | 28178 ft | 457 kts | 9° |
| 2026-04-28 09:44 | 14.52528 | 77.95730 | 28422 ft | 457 kts | 6° |
| 2026-04-28 09:44 | 14.55677 | 77.96251 | 28661 ft | 459 kts | 6° |
| 2026-04-28 09:45 | 14.58841 | 77.96782 | 28895 ft | 461 kts | 6° |
| 2026-04-28 09:45 | 14.62013 | 77.97319 | 29127 ft | 463 kts | 6° |
| 2026-04-28 09:45 | 14.65203 | 77.97859 | 29346 ft | 465 kts | 6° |
| 2026-04-28 09:45 | 14.68392 | 77.98400 | 29575 ft | 467 kts | 6° |
| 2026-04-28 09:46 | 14.71622 | 77.98947 | 29809 ft | 469 kts | 6° |
| 2026-04-28 09:46 | 14.74862 | 77.99496 | 30026 ft | 471 kts | 6° |
| 2026-04-28 09:46 | 14.78092 | 78.00042 | 30221 ft | 472 kts | 5° |
| 2026-04-28 09:46 | 14.81308 | 78.00587 | 30405 ft | 474 kts | 5° |
| 2026-04-28 09:47 | 14.84573 | 78.01139 | 30590 ft | 477 kts | 5° |
| 2026-04-28 09:47 | 14.87850 | 78.01695 | 30773 ft | 479 kts | 5° |
| 2026-04-28 09:47 | 14.91102 | 78.02246 | 30953 ft | 481 kts | 5° |
| 2026-04-28 09:47 | 14.94409 | 78.02807 | 31141 ft | 482 kts | 5° |
| 2026-04-28 09:48 | 14.97731 | 78.03370 | 31326 ft | 484 kts | 5° |
| 2026-04-28 09:48 | 15.01075 | 78.03937 | 31515 ft | 485 kts | 5° |
| 2026-04-28 09:48 | 15.04405 | 78.04503 | 31759 ft | 485 kts | 5° |
| 2026-04-28 09:48 | 15.07737 | 78.05069 | 31992 ft | 485 kts | 5° |
| 2026-04-28 09:49 | 15.11025 | 78.05628 | 32231 ft | 484 kts | 5° |
| 2026-04-28 09:49 | 15.14346 | 78.06192 | 32482 ft | 483 kts | 5° |
| 2026-04-28 09:49 | 15.17668 | 78.06757 | 32720 ft | 482 kts | 5° |
| 2026-04-28 09:49 | 15.20969 | 78.07318 | 32967 ft | 481 kts | 5° |
| 2026-04-28 09:50 | 15.24271 | 78.07880 | 33216 ft | 480 kts | 5° |
| 2026-04-28 09:50 | 15.27561 | 78.08440 | 33466 ft | 478 kts | 5° |
| 2026-04-28 09:50 | 15.30844 | 78.08998 | 33720 ft | 477 kts | 5° |
| 2026-04-28 09:50 | 15.34120 | 78.09555 | 33822 ft | 480 kts | 4° |
| 2026-04-28 09:51 | 15.40736 | 78.10658 | 33804 ft | 486 kts | 4° |
| 2026-04-28 09:51 | 15.47441 | 78.11743 | 33793 ft | 490 kts | 4° |
| 2026-04-28 09:52 | 15.54189 | 78.12841 | 33781 ft | 492 kts | 4° |
| 2026-04-28 09:52 | 15.60975 | 78.13949 | 33775 ft | 494 kts | 4° |
| 2026-04-28 09:53 | 15.67772 | 78.15060 | 33775 ft | 495 kts | 4° |
| 2026-04-28 09:53 | 15.74583 | 78.16174 | 33776 ft | 496 kts | 4° |
| 2026-04-28 09:54 | 15.81413 | 78.17292 | 33773 ft | 496 kts | 4° |
| 2026-04-28 09:54 | 15.88196 | 78.18403 | 33784 ft | 497 kts | 4° |
| 2026-04-28 09:55 | 15.95032 | 78.19524 | 33784 ft | 497 kts | 4° |
| 2026-04-28 09:55 | 16.01864 | 78.20645 | 33788 ft | 497 kts | 4° |
| 2026-04-28 09:56 | 16.08697 | 78.21766 | 33797 ft | 497 kts | 4° |
| 2026-04-28 09:56 | 16.15536 | 78.22890 | 33802 ft | 498 kts | 4° |
| 2026-04-28 09:57 | 16.22373 | 78.24014 | 33801 ft | 497 kts | 3° |
| 2026-04-28 09:57 | 16.29213 | 78.25134 | 33804 ft | 497 kts | 3° |
| 2026-04-28 09:58 | 16.36052 | 78.26255 | 33806 ft | 498 kts | 3° |
| 2026-04-28 09:58 | 16.42896 | 78.27378 | 33807 ft | 498 kts | 3° |
| 2026-04-28 09:59 | 16.49735 | 78.28501 | 33812 ft | 498 kts | 3° |
| 2026-04-28 09:59 | 16.56580 | 78.29625 | 33809 ft | 498 kts | 3° |
| 2026-04-28 10:00 | 16.63423 | 78.30750 | 33811 ft | 498 kts | 3° |
| 2026-04-28 10:00 | 16.70286 | 78.31879 | 33816 ft | 499 kts | 3° |
| 2026-04-28 10:01 | 16.77145 | 78.33008 | 33824 ft | 499 kts | 3° |
| 2026-04-28 10:01 | 16.84008 | 78.34140 | 33821 ft | 499 kts | 3° |
| 2026-04-28 10:02 | 16.90877 | 78.35273 | 33821 ft | 500 kts | 3° |
| 2026-04-28 10:02 | 16.96583 | 78.36214 | 33838 ft | 500 kts | 3° |
| 2026-04-28 10:03 | 17.01786 | 78.37073 | 33821 ft | 500 kts | 2° |
| 2026-04-28 10:03 | 17.08668 | 78.38210 | 33838 ft | 501 kts | 2° |
| 2026-04-28 10:04 | 17.15557 | 78.39349 | 33833 ft | 501 kts | 2° |
| 2026-04-28 10:04 | 17.22412 | 78.40120 | 34093 ft | 487 kts | 354° |
| 2026-04-28 10:05 | 17.25776 | 78.40072 | 34317 ft | 478 kts | 350° |
| 2026-04-28 10:05 | 17.29061 | 78.39745 | 34545 ft | 470 kts | 345° |
| 2026-04-28 10:05 | 17.32288 | 78.39286 | 34770 ft | 467 kts | 345° |
| 2026-04-28 10:05 | 17.35503 | 78.38838 | 34996 ft | 464 kts | 345° |
| 2026-04-28 10:06 | 17.38700 | 78.38396 | 35205 ft | 462 kts | 345° |
| 2026-04-28 10:06 | 17.41882 | 78.37956 | 35441 ft | 460 kts | 345° |
| 2026-04-28 10:06 | 17.45049 | 78.37517 | 35674 ft | 458 kts | 345° |
| 2026-04-28 10:06 | 17.48213 | 78.37077 | 35803 ft | 459 kts | 345° |
| 2026-04-28 10:07 | 17.53511 | 78.36338 | 35807 ft | 465 kts | 345° |
| 2026-04-28 10:07 | 17.61054 | 78.35287 | 35814 ft | 470 kts | 345° |
| 2026-04-28 10:08 | 17.66460 | 78.34536 | 35815 ft | 473 kts | 345° |
| 2026-04-28 10:08 | 17.73003 | 78.33627 | 35821 ft | 475 kts | 345° |
| 2026-04-28 10:09 | 17.79572 | 78.32713 | 35816 ft | 477 kts | 345° |
| 2026-04-28 10:09 | 17.86123 | 78.31800 | 35812 ft | 478 kts | 345° |
| 2026-04-28 10:10 | 17.92729 | 78.30879 | 35811 ft | 478 kts | 345° |
| 2026-04-28 10:10 | 17.99337 | 78.29957 | 35807 ft | 479 kts | 345° |
| 2026-04-28 10:11 | 18.05949 | 78.29038 | 35800 ft | 479 kts | 345° |
| 2026-04-28 10:11 | 18.12563 | 78.28127 | 35777 ft | 480 kts | 345° |
| 2026-04-28 10:12 | 18.19186 | 78.27213 | 35774 ft | 480 kts | 345° |
| 2026-04-28 10:12 | 18.25813 | 78.26297 | 35776 ft | 480 kts | 345° |
| 2026-04-28 10:13 | 18.32399 | 78.25386 | 35770 ft | 480 kts | 345° |
| 2026-04-28 10:13 | 18.39071 | 78.24462 | 35765 ft | 480 kts | 345° |
| 2026-04-28 10:14 | 18.45658 | 78.23549 | 35761 ft | 481 kts | 345° |
| 2026-04-28 10:14 | 18.52289 | 78.22629 | 35754 ft | 481 kts | 345° |
| 2026-04-28 10:15 | 18.58929 | 78.21707 | 35751 ft | 481 kts | 345° |
| 2026-04-28 10:15 | 18.65567 | 78.20784 | 35752 ft | 482 kts | 345° |
| 2026-04-28 10:16 | 18.72216 | 78.19858 | 35747 ft | 482 kts | 345° |
| 2026-04-28 10:16 | 18.78874 | 78.18931 | 35733 ft | 483 kts | 345° |
| 2026-04-28 10:17 | 18.85541 | 78.18002 | 35736 ft | 483 kts | 345° |
| 2026-04-28 10:17 | 18.92210 | 78.17072 | 35728 ft | 483 kts | 345° |
| 2026-04-28 10:18 | 18.98879 | 78.16142 | 35736 ft | 483 kts | 345° |
| 2026-04-28 10:18 | 19.05557 | 78.15209 | 35732 ft | 484 kts | 346° |
| 2026-04-28 10:19 | 19.12227 | 78.14277 | 35731 ft | 484 kts | 346° |
| 2026-04-28 10:19 | 19.18910 | 78.13342 | 35730 ft | 484 kts | 346° |
| 2026-04-28 10:20 | 19.25587 | 78.12408 | 35730 ft | 484 kts | 345° |
| 2026-04-28 10:20 | 19.32200 | 78.11194 | 35732 ft | 481 kts | 342° |
| 2026-04-28 10:21 | 19.38785 | 78.09869 | 35732 ft | 482 kts | 343° |
| 2026-04-28 10:21 | 19.45381 | 78.08586 | 35730 ft | 482 kts | 343° |
| 2026-04-28 10:22 | 19.51983 | 78.07318 | 35727 ft | 482 kts | 343° |
| 2026-04-28 10:22 | 19.58582 | 78.06053 | 35725 ft | 482 kts | 343° |
| 2026-04-28 10:23 | 19.65182 | 78.04786 | 35722 ft | 482 kts | 343° |
| 2026-04-28 10:23 | 19.71752 | 78.03524 | 35720 ft | 482 kts | 343° |
| 2026-04-28 10:24 | 19.78357 | 78.02253 | 35722 ft | 482 kts | 343° |
| 2026-04-28 10:24 | 19.84953 | 78.00983 | 35714 ft | 482 kts | 343° |
| 2026-04-28 10:25 | 19.91555 | 77.99711 | 35714 ft | 482 kts | 343° |
| 2026-04-28 10:25 | 19.98159 | 77.98438 | 35716 ft | 482 kts | 343° |
| 2026-04-28 10:26 | 20.04762 | 77.97163 | 35711 ft | 482 kts | 343° |
| 2026-04-28 10:26 | 20.11364 | 77.95889 | 35709 ft | 482 kts | 343° |
| 2026-04-28 10:27 | 20.17971 | 77.94612 | 35709 ft | 482 kts | 343° |
| 2026-04-28 10:27 | 20.24570 | 77.93336 | 35710 ft | 482 kts | 343° |
| 2026-04-28 10:28 | 20.31163 | 77.92059 | 35711 ft | 482 kts | 343° |
| 2026-04-28 10:29 | 20.41052 | 77.90142 | 35707 ft | 481 kts | 343° |
| 2026-04-28 10:29 | 20.47640 | 77.88864 | 35709 ft | 481 kts | 343° |
| 2026-04-28 10:30 | 20.54228 | 77.87587 | 35707 ft | 481 kts | 343° |
| 2026-04-28 10:30 | 20.60821 | 77.86367 | 35707 ft | 481 kts | 344° |
| 2026-04-28 10:31 | 20.67419 | 77.85153 | 35704 ft | 481 kts | 344° |
| 2026-04-28 10:31 | 20.73990 | 77.83864 | 35706 ft | 479 kts | 342° |
| 2026-04-28 10:32 | 20.80484 | 77.82484 | 35706 ft | 479 kts | 342° |
| 2026-04-28 10:32 | 20.87071 | 77.81099 | 35704 ft | 479 kts | 342° |
| 2026-04-28 10:33 | 20.93582 | 77.79742 | 35702 ft | 480 kts | 343° |
| 2026-04-28 10:33 | 21.00143 | 77.78431 | 35704 ft | 480 kts | 343° |
| 2026-04-28 10:34 | 21.06714 | 77.77125 | 35706 ft | 480 kts | 343° |
| 2026-04-28 10:34 | 21.13287 | 77.75811 | 35710 ft | 480 kts | 343° |
| 2026-04-28 10:35 | 21.19859 | 77.74493 | 35714 ft | 480 kts | 343° |
| 2026-04-28 10:35 | 21.26471 | 77.73166 | 35724 ft | 480 kts | 343° |
| 2026-04-28 10:36 | 21.32988 | 77.71857 | 35728 ft | 479 kts | 343° |
| 2026-04-28 10:36 | 21.39518 | 77.70517 | 35737 ft | 476 kts | 345° |
| 2026-04-28 10:37 | 21.46020 | 77.69203 | 35742 ft | 474 kts | 346° |
| 2026-04-28 10:37 | 21.52499 | 77.67906 | 35747 ft | 472 kts | 346° |
| 2026-04-28 10:38 | 21.58974 | 77.66670 | 35753 ft | 471 kts | 346° |
| 2026-04-28 10:38 | 21.65401 | 77.65454 | 35752 ft | 470 kts | 346° |
| 2026-04-28 10:39 | 21.71858 | 77.64222 | 35755 ft | 470 kts | 346° |
| 2026-04-28 10:39 | 21.78258 | 77.62995 | 35758 ft | 470 kts | 346° |
| 2026-04-28 10:40 | 21.84695 | 77.61760 | 35751 ft | 469 kts | 346° |
| 2026-04-28 10:40 | 21.91108 | 77.60527 | 35755 ft | 469 kts | 346° |
| 2026-04-28 10:41 | 21.97544 | 77.59289 | 35749 ft | 469 kts | 346° |
| 2026-04-28 10:41 | 22.03970 | 77.58052 | 35748 ft | 469 kts | 346° |
| 2026-04-28 10:42 | 22.10385 | 77.56815 | 35749 ft | 468 kts | 346° |
| 2026-04-28 10:42 | 22.16814 | 77.55568 | 35746 ft | 468 kts | 346° |
| 2026-04-28 10:43 | 22.23194 | 77.54323 | 35743 ft | 468 kts | 346° |
| 2026-04-28 10:43 | 22.29611 | 77.53071 | 35744 ft | 468 kts | 346° |
| 2026-04-28 10:44 | 22.36021 | 77.51820 | 35734 ft | 468 kts | 346° |
| 2026-04-28 10:44 | 22.42444 | 77.50565 | 35729 ft | 468 kts | 346° |
| 2026-04-28 10:45 | 22.48859 | 77.49310 | 35734 ft | 468 kts | 346° |
| 2026-04-28 10:45 | 22.55278 | 77.48053 | 35727 ft | 468 kts | 346° |
| 2026-04-28 10:46 | 22.61689 | 77.46797 | 35729 ft | 468 kts | 346° |
| 2026-04-28 10:46 | 22.68061 | 77.45547 | 35730 ft | 468 kts | 346° |
| 2026-04-28 10:47 | 22.74479 | 77.44287 | 35734 ft | 468 kts | 346° |
| 2026-04-28 10:47 | 22.80887 | 77.43027 | 35732 ft | 468 kts | 346° |
| 2026-04-28 10:48 | 22.87302 | 77.41765 | 35737 ft | 468 kts | 346° |
| 2026-04-28 10:48 | 22.93723 | 77.40501 | 35738 ft | 468 kts | 346° |
| 2026-04-28 10:49 | 23.00133 | 77.39238 | 35743 ft | 468 kts | 346° |
| 2026-04-28 10:49 | 23.05464 | 77.38187 | 35746 ft | 469 kts | 346° |
| 2026-04-28 10:50 | 23.12927 | 77.36714 | 35748 ft | 469 kts | 346° |
| 2026-04-28 10:50 | 23.19351 | 77.35443 | 35751 ft | 469 kts | 346° |
| 2026-04-28 10:51 | 23.24742 | 77.34385 | 35744 ft | 469 kts | 347° |
| 2026-04-28 10:51 | 23.31252 | 77.33556 | 35742 ft | 472 kts | 352° |
| 2026-04-28 10:52 | 23.37796 | 77.33231 | 35747 ft | 473 kts | 353° |
| 2026-04-28 10:52 | 23.44379 | 77.32923 | 35750 ft | 474 kts | 353° |
| 2026-04-28 10:53 | 23.50972 | 77.32613 | 35741 ft | 474 kts | 353° |
| 2026-04-28 10:53 | 23.57564 | 77.32304 | 35741 ft | 474 kts | 353° |
| 2026-04-28 10:54 | 23.64162 | 77.31996 | 35739 ft | 474 kts | 353° |
| 2026-04-28 10:54 | 23.70760 | 77.31687 | 35738 ft | 475 kts | 353° |
| 2026-04-28 10:55 | 23.77363 | 77.31378 | 35731 ft | 475 kts | 353° |
| 2026-04-28 10:55 | 23.83967 | 77.31068 | 35731 ft | 475 kts | 353° |
| 2026-04-28 10:56 | 23.90582 | 77.30758 | 35729 ft | 475 kts | 353° |
| 2026-04-28 10:56 | 23.97198 | 77.30447 | 35722 ft | 475 kts | 353° |
| 2026-04-28 10:57 | 24.03802 | 77.30137 | 35719 ft | 475 kts | 353° |
| 2026-04-28 10:57 | 24.10381 | 77.29827 | 35718 ft | 475 kts | 353° |
| 2026-04-28 10:58 | 24.16841 | 77.29522 | 35716 ft | 475 kts | 353° |
| 2026-04-28 10:58 | 24.23454 | 77.29210 | 35712 ft | 476 kts | 353° |
| 2026-04-28 10:59 | 24.30064 | 77.28897 | 35708 ft | 476 kts | 353° |
| 2026-04-28 10:59 | 24.36682 | 77.28584 | 35705 ft | 476 kts | 353° |
| 2026-04-28 11:00 | 24.43313 | 77.28270 | 35710 ft | 476 kts | 353° |
| 2026-04-28 11:00 | 24.49931 | 77.27957 | 35702 ft | 476 kts | 353° |
| 2026-04-28 11:01 | 24.56546 | 77.27643 | 35698 ft | 476 kts | 353° |
| 2026-04-28 11:01 | 24.63125 | 77.27330 | 35695 ft | 476 kts | 353° |
| 2026-04-28 11:02 | 24.69647 | 77.27020 | 35692 ft | 476 kts | 353° |
| 2026-04-28 11:02 | 24.76274 | 77.26728 | 35688 ft | 477 kts | 353° |
| 2026-04-28 11:03 | 24.82905 | 77.26452 | 35687 ft | 477 kts | 353° |
| 2026-04-28 11:03 | 24.89534 | 77.26172 | 35681 ft | 477 kts | 353° |
| 2026-04-28 11:04 | 24.96165 | 77.25889 | 35683 ft | 477 kts | 353° |
| 2026-04-28 11:04 | 25.02799 | 77.25611 | 35677 ft | 477 kts | 353° |
| 2026-04-28 11:05 | 25.09431 | 77.25376 | 35682 ft | 477 kts | 354° |
| 2026-04-28 11:05 | 25.16075 | 77.25141 | 35671 ft | 477 kts | 354° |
| 2026-04-28 11:06 | 25.22715 | 77.24901 | 35670 ft | 477 kts | 354° |
| 2026-04-28 11:06 | 25.29356 | 77.24660 | 35665 ft | 478 kts | 354° |
| 2026-04-28 11:07 | 25.36005 | 77.24418 | 35666 ft | 478 kts | 354° |
| 2026-04-28 11:07 | 25.42654 | 77.24176 | 35659 ft | 478 kts | 354° |
| 2026-04-28 11:08 | 25.49304 | 77.23934 | 35656 ft | 478 kts | 354° |
| 2026-04-28 11:08 | 25.55956 | 77.23691 | 35656 ft | 478 kts | 354° |
| 2026-04-28 11:09 | 25.62606 | 77.23448 | 35644 ft | 478 kts | 354° |
| 2026-04-28 11:09 | 25.69265 | 77.23204 | 35640 ft | 478 kts | 354° |
| 2026-04-28 11:10 | 25.75915 | 77.22961 | 35639 ft | 478 kts | 354° |
| 2026-04-28 11:10 | 25.82577 | 77.22717 | 35631 ft | 479 kts | 354° |
| 2026-04-28 11:11 | 25.89229 | 77.22473 | 35627 ft | 479 kts | 354° |
| 2026-04-28 11:11 | 25.95898 | 77.22228 | 35620 ft | 479 kts | 354° |
| 2026-04-28 11:12 | 26.02558 | 77.21983 | 35619 ft | 479 kts | 354° |
| 2026-04-28 11:12 | 26.09183 | 77.21740 | 35616 ft | 479 kts | 354° |
| 2026-04-28 11:13 | 26.15857 | 77.21490 | 35612 ft | 480 kts | 353° |
| 2026-04-28 11:13 | 26.22527 | 77.21148 | 35612 ft | 479 kts | 353° |
| 2026-04-28 11:14 | 26.29194 | 77.20791 | 35611 ft | 480 kts | 353° |
| 2026-04-28 11:14 | 26.35872 | 77.20443 | 35611 ft | 480 kts | 353° |
| 2026-04-28 11:15 | 26.42550 | 77.20100 | 35612 ft | 480 kts | 353° |
| 2026-04-28 11:15 | 26.49225 | 77.19757 | 35614 ft | 480 kts | 353° |
| 2026-04-28 11:16 | 26.55908 | 77.19413 | 35616 ft | 481 kts | 353° |
| 2026-04-28 11:16 | 26.62552 | 77.19070 | 35617 ft | 481 kts | 353° |
| 2026-04-28 11:17 | 26.69234 | 77.18726 | 35622 ft | 481 kts | 353° |
| 2026-04-28 11:17 | 26.75916 | 77.18381 | 35615 ft | 481 kts | 353° |
| 2026-04-28 11:18 | 26.82602 | 77.18035 | 35617 ft | 481 kts | 353° |
| 2026-04-28 11:18 | 26.89279 | 77.17689 | 35620 ft | 480 kts | 353° |
| 2026-04-28 11:19 | 26.95957 | 77.17343 | 35623 ft | 480 kts | 353° |
| 2026-04-28 11:19 | 27.02637 | 77.16996 | 35627 ft | 480 kts | 353° |
| 2026-04-28 11:20 | 27.09319 | 77.16648 | 35629 ft | 480 kts | 353° |
| 2026-04-28 11:20 | 27.15998 | 77.16301 | 35632 ft | 480 kts | 353° |
| 2026-04-28 11:21 | 27.22664 | 77.15953 | 35629 ft | 480 kts | 353° |
| 2026-04-28 11:21 | 27.29343 | 77.15605 | 35631 ft | 480 kts | 353° |
| 2026-04-28 11:22 | 27.35935 | 77.15264 | 35467 ft | 466 kts | 353° |
| 2026-04-28 11:22 | 27.39149 | 77.15097 | 35035 ft | 460 kts | 353° |
| 2026-04-28 11:22 | 27.42340 | 77.14928 | 34489 ft | 458 kts | 353° |
| 2026-04-28 11:22 | 27.45518 | 77.14759 | 33939 ft | 457 kts | 354° |
| 2026-04-28 11:23 | 27.48685 | 77.14590 | 33369 ft | 455 kts | 354° |
| 2026-04-28 11:23 | 27.51842 | 77.14423 | 32751 ft | 454 kts | 354° |
| 2026-04-28 11:23 | 27.54994 | 77.14257 | 32144 ft | 452 kts | 354° |
| 2026-04-28 11:23 | 27.58139 | 77.14092 | 31561 ft | 451 kts | 354° |
| 2026-04-28 11:24 | 27.61270 | 77.13932 | 30984 ft | 451 kts | 355° |
| 2026-04-28 11:24 | 27.64386 | 77.14045 | 30427 ft | 452 kts | 3° |
| 2026-04-28 11:24 | 27.67495 | 77.14605 | 29872 ft | 454 kts | 10° |
| 2026-04-28 11:24 | 27.70548 | 77.15540 | 29257 ft | 454 kts | 13° |
| 2026-04-28 11:25 | 27.73566 | 77.16506 | 28621 ft | 451 kts | 13° |
| 2026-04-28 11:25 | 27.76569 | 77.17459 | 27989 ft | 446 kts | 13° |
| 2026-04-28 11:25 | 27.79503 | 77.18389 | 27394 ft | 441 kts | 13° |
| 2026-04-28 11:25 | 27.82439 | 77.19319 | 26802 ft | 436 kts | 13° |
| 2026-04-28 11:26 | 27.85375 | 77.20251 | 26204 ft | 430 kts | 13° |
| 2026-04-28 11:26 | 27.88243 | 77.21162 | 25631 ft | 426 kts | 13° |
| 2026-04-28 11:26 | 27.91078 | 77.22063 | 25072 ft | 421 kts | 13° |
| 2026-04-28 11:26 | 27.93884 | 77.22955 | 24520 ft | 417 kts | 13° |
| 2026-04-28 11:27 | 27.96626 | 77.23828 | 23990 ft | 413 kts | 13° |
| 2026-04-28 11:27 | 27.99362 | 77.24700 | 23488 ft | 402 kts | 13° |
| 2026-04-28 11:27 | 28.02002 | 77.25543 | 23202 ft | 384 kts | 12° |
| 2026-04-28 11:27 | 28.04512 | 77.26347 | 22904 ft | 367 kts | 12° |
| 2026-04-28 11:28 | 28.06902 | 77.27191 | 22501 ft | 357 kts | 22° |
| 2026-04-28 11:28 | 28.08930 | 77.28742 | 22112 ft | 351 kts | 44° |
| 2026-04-28 11:28 | 28.10288 | 77.30990 | 21728 ft | 345 kts | 67° |
| 2026-04-28 11:28 | 28.10794 | 77.33621 | 21351 ft | 341 kts | 91° |
| 2026-04-28 11:29 | 28.10378 | 77.36217 | 21027 ft | 336 kts | 116° |
| 2026-04-28 11:29 | 28.09153 | 77.38376 | 20779 ft | 331 kts | 137° |
| 2026-04-28 11:29 | 28.07394 | 77.40005 | 20537 ft | 325 kts | 154° |
| 2026-04-28 11:29 | 28.05347 | 77.40989 | 20293 ft | 317 kts | 172° |
| 2026-04-28 11:30 | 28.03193 | 77.41242 | 20053 ft | 308 kts | 189° |
| 2026-04-28 11:30 | 27.99131 | 77.40118 | 19573 ft | 300 kts | 201° |
| 2026-04-28 11:30 | 27.97125 | 77.39475 | 19340 ft | 298 kts | 201° |
| 2026-04-28 11:31 | 27.95129 | 77.38845 | 19099 ft | 297 kts | 201° |
| 2026-04-28 11:31 | 27.93144 | 77.38220 | 18861 ft | 295 kts | 201° |
| 2026-04-28 11:31 | 27.91215 | 77.37612 | 18633 ft | 295 kts | 201° |
| 2026-04-28 11:31 | 27.89258 | 77.36940 | 18286 ft | 291 kts | 210° |
| 2026-04-28 11:32 | 27.87681 | 77.35646 | 17953 ft | 276 kts | 236° |
| 2026-04-28 11:32 | 27.87026 | 77.34435 | 17704 ft | 271 kts | 253° |
| 2026-04-28 11:32 | 27.86890 | 77.31666 | 17184 ft | 267 kts | 287° |
| 2026-04-28 11:32 | 27.87419 | 77.30414 | 16939 ft | 269 kts | 305° |
| 2026-04-28 11:33 | 27.88830 | 77.29004 | 16563 ft | 277 kts | 330° |
| 2026-04-28 11:33 | 27.90702 | 77.28417 | 16199 ft | 284 kts | 348° |
| 2026-04-28 11:33 | 27.92676 | 77.28176 | 15813 ft | 285 kts | 350° |
| 2026-04-28 11:33 | 27.94659 | 77.27972 | 15262 ft | 287 kts | 350° |
| 2026-04-28 11:34 | 27.96642 | 77.27749 | 14699 ft | 286 kts | 349° |
| 2026-04-28 11:34 | 27.98623 | 77.27503 | 14140 ft | 285 kts | 348° |
| 2026-04-28 11:34 | 28.00594 | 77.27242 | 13593 ft | 285 kts | 348° |
| 2026-04-28 11:34 | 28.02557 | 77.26974 | 13003 ft | 284 kts | 348° |
| 2026-04-28 11:35 | 28.04524 | 77.26704 | 12393 ft | 284 kts | 349° |
| 2026-04-28 11:35 | 28.06516 | 77.26638 | 11830 ft | 290 kts | 358° |
| 2026-04-28 11:35 | 28.08551 | 77.26746 | 11251 ft | 295 kts | 358° |
| 2026-04-28 11:35 | 28.10621 | 77.26846 | 10684 ft | 300 kts | 358° |
| 2026-04-28 11:36 | 28.12723 | 77.26947 | 10124 ft | 305 kts | 359° |
| 2026-04-28 11:36 | 28.14855 | 77.27051 | 9639 ft | 307 kts | 359° |
| 2026-04-28 11:36 | 28.16995 | 77.27157 | 9132 ft | 307 kts | 359° |
| 2026-04-28 11:36 | 28.19138 | 77.27261 | 8654 ft | 308 kts | 359° |
| 2026-04-28 11:37 | 28.21187 | 77.27362 | 8181 ft | 308 kts | 359° |
| 2026-04-28 11:37 | 28.23129 | 77.27457 | 7746 ft | 307 kts | 359° |
| 2026-04-28 11:37 | 28.25209 | 77.27559 | 7290 ft | 307 kts | 359° |
| 2026-04-28 11:37 | 28.27343 | 77.27663 | 6822 ft | 307 kts | 360° |
| 2026-04-28 11:38 | 28.29444 | 77.27767 | 6365 ft | 306 kts | 360° |
| 2026-04-28 11:38 | 28.31566 | 77.27870 | 5913 ft | 305 kts | 0° |
| 2026-04-28 11:38 | 28.33687 | 77.27973 | 5420 ft | 305 kts | 0° |
| 2026-04-28 11:38 | 28.35803 | 77.28078 | 4952 ft | 300 kts | 0° |
| 2026-04-28 11:39 | 28.37841 | 77.28183 | 4658 ft | 285 kts | 0° |
| 2026-04-28 11:39 | 28.39767 | 77.28280 | 4424 ft | 270 kts | 0° |
| 2026-04-28 11:39 | 28.41622 | 77.28370 | 4160 ft | 264 kts | 0° |
| 2026-04-28 11:39 | 28.43430 | 77.28465 | 3906 ft | 255 kts | 0° |
| 2026-04-28 11:40 | 28.45142 | 77.28555 | 3818 ft | 238 kts | 0° |
| 2026-04-28 11:40 | 28.46765 | 77.28635 | 3762 ft | 227 kts | 0° |
| 2026-04-28 11:40 | 28.48286 | 77.28668 | 3692 ft | 208 kts | 350° |
| 2026-04-28 11:40 | 28.49561 | 77.28138 | 3580 ft | 189 kts | 320° |
| 2026-04-28 11:41 | 28.50415 | 77.27004 | 3496 ft | 192 kts | 297° |
| 2026-04-28 11:41 | 28.50935 | 77.25595 | 3386 ft | 192 kts | 287° |
| 2026-04-28 11:41 | 28.51290 | 77.24162 | 3133 ft | 185 kts | 284° |
| 2026-04-28 11:41 | 28.51593 | 77.22757 | 2895 ft | 180 kts | 284° |
| 2026-04-28 11:42 | 28.51885 | 77.21400 | 2654 ft | 173 kts | 284° |
| 2026-04-28 11:42 | 28.52167 | 77.20102 | 2436 ft | 164 kts | 283° |
| 2026-04-28 11:42 | 28.52425 | 77.18886 | 2248 ft | 154 kts | 284° |
| 2026-04-28 11:42 | 28.52684 | 77.17675 | 2052 ft | 160 kts | 284° |
| 2026-04-28 11:43 | 28.52952 | 77.16422 | 1852 ft | 166 kts | 284° |
| 2026-04-28 11:43 | 28.53223 | 77.15157 | 1640 ft | 162 kts | 284° |
| 2026-04-28 11:43 | 28.53491 | 77.13903 | 1444 ft | 165 kts | 284° |
| 2026-04-28 11:43 | 28.53761 | 77.12637 | 1233 ft | 164 kts | 285° |
| 2026-04-28 11:44 | 28.54025 | 77.11389 | 952 ft | 160 kts | 286° |
| 2026-04-28 11:44 | 28.54286 | 77.10191 | 767 ft | 153 kts | 286° |
| 2026-04-28 11:44 | 28.54511 | 77.09169 | 748 ft | 99 kts | 283° |
| 2026-04-28 11:44 | 28.54643 | 77.08564 | 749 ft | 67 kts | 290° |
| 2026-04-28 11:45 | 28.54866 | 77.08251 | 747 ft | 32 kts | 315° |
| 2026-04-28 11:45 | 28.54960 | 77.08119 | 749 ft | 17 kts | 284° |
| 2026-04-28 11:45 | 28.54990 | 77.07984 | 751 ft | 19 kts | 285° |
| 2026-04-28 11:45 | 28.55024 | 77.07835 | 752 ft | 20 kts | 284° |
| 2026-04-28 11:46 | 28.55085 | 77.07711 | 748 ft | 17 kts | 349° |
| 2026-04-28 11:46 | 28.55206 | 77.07741 | 748 ft | 19 kts | 13° |
| 2026-04-28 11:46 | 28.55342 | 77.07780 | 748 ft | 21 kts | 15° |
| 2026-04-28 11:46 | 28.55490 | 77.07823 | 747 ft | 24 kts | 14° |
| 2026-04-28 11:47 | 28.55664 | 77.07873 | 748 ft | 27 kts | 14° |
| 2026-04-28 11:47 | 28.55855 | 77.07929 | 747 ft | 29 kts | 14° |
| 2026-04-28 11:47 | 28.56056 | 77.07986 | 749 ft | 30 kts | 14° |
| 2026-04-28 11:47 | 28.56261 | 77.08044 | 747 ft | 30 kts | 14° |
| 2026-04-28 11:48 | 28.56338 | 77.08133 | 748 ft | 15 kts | 100° |
| 2026-04-28 11:48 | 28.56292 | 77.08246 | 748 ft | 17 kts | 139° |
| 2026-04-28 11:48 | 28.56190 | 77.08317 | 749 ft | 17 kts | 149° |
| 2026-04-28 11:48 | 28.56114 | 77.08367 | 750 ft | 10 kts | 149° |
| 2026-04-28 11:49 | 28.56072 | 77.08375 | 749 ft | 5 kts | 203° |
| 2026-04-28 11:49 | 28.56049 | 77.08334 | 749 ft | 6 kts | 241° |
| 2026-04-28 11:49 | 28.56039 | 77.08313 | 746 ft | 2 kts | 242° |
| 2026-04-28 11:49 | 28.56038 | 77.08310 | 746 ft | 0 kts | 242° |